Time,TemperatureF,DewpointF,PressureIn,WindDirection,WindDirectionDegrees,WindSpeedMPH,WindSpeedGustMPH,Humidity,HourlyPrecipIn,Conditions,Clouds,dailyrainin,SoftwareType,DateUTC
2013-08-21 00:04:00,84.4,73.9,29.70,East,90,2.2,2.2,71,0.00,,---,0.00,VWS V13.01,2013-08-21 04:04:00,
2013-08-21 00:09:00,84.4,73.5,29.70,East,90,4.3,5.6,70,0.00,,---,0.00,VWS V13.01,2013-08-21 04:09:00,
2013-08-21 00:14:00,84.4,73.5,29.70,ESE,112,2.2,4.3,70,0.00,,---,0.00,VWS V13.01,2013-08-21 04:14:00,
2013-08-21 00:19:00,84.4,73.9,29.69,ENE,68,0.0,2.2,71,0.00,,---,0.00,VWS V13.01,2013-08-21 04:19:00,
2013-08-21 00:24:00,84.4,73.9,29.69,ESE,112,0.0,0.0,71,0.00,,---,0.00,VWS V13.01,2013-08-21 04:24:00,
2013-08-21 00:28:00,84.4,73.9,29.69,ESE,112,0.0,0.0,71,0.00,,---,0.00,VWS V13.01,2013-08-21 04:28:00,
2013-08-21 00:33:00,84.4,74.4,29.69,ENE,68,7.6,7.6,72,0.00,,---,0.00,VWS V13.01,2013-08-21 04:33:00,
2013-08-21 00:38:00,84.4,74.4,29.70,ENE,68,7.6,7.6,72,0.00,,---,0.00,VWS V13.01,2013-08-21 04:38:00,
2013-08-21 00:44:00,83.5,73.5,29.70,East,90,0.9,7.6,72,0.00,,---,0.00,VWS V13.01,2013-08-21 04:44:00,
2013-08-21 00:54:00,83.3,72.5,29.70,ENE,68,2.9,8.5,70,0.00,,---,0.00,VWS V13.01,2013-08-21 04:54:00,
2013-08-21 01:03:00,83.1,72.3,29.70,ESE,112,6.0,6.0,70,0.00,,---,0.00,VWS V13.01,2013-08-21 05:03:00,
2013-08-21 01:09:00,83.1,72.3,29.68,ESE,112,4.7,6.0,70,0.00,,---,0.00,VWS V13.01,2013-08-21 05:09:00,
2013-08-21 01:19:00,83.1,72.8,29.69,ENE,68,0.0,5.6,71,0.00,,---,0.00,VWS V13.01,2013-08-21 05:19:00,
2013-08-21 01:29:00,83.1,73.2,29.69,ENE,68,3.4,6.0,72,0.00,,---,0.00,VWS V13.01,2013-08-21 05:29:00,
2013-08-21 01:38:00,82.9,73.4,29.69,East,90,0.0,1.3,73,0.00,,---,0.00,VWS V13.01,2013-08-21 05:38:00,
2013-08-21 01:44:00,83.1,73.6,29.69,ENE,68,2.0,2.0,73,0.00,,---,0.00,VWS V13.01,2013-08-21 05:44:00,
2013-08-21 01:49:00,83.1,73.6,29.68,ENE,68,0.0,2.0,73,0.00,,---,0.00,VWS V13.01,2013-08-21 05:49:00,
2013-08-21 01:59:00,83.1,73.2,29.68,East,90,0.0,0.0,72,0.00,,---,0.00,VWS V13.01,2013-08-21 05:59:00,
2013-08-21 02:09:00,83.3,73.8,29.68,East,90,3.1,7.6,73,0.00,,---,0.00,VWS V13.01,2013-08-21 06:09:00,
2013-08-21 02:18:00,83.3,72.9,29.68,East,90,3.1,3.1,71,0.00,,---,0.00,VWS V13.01,2013-08-21 06:18:00,
2013-08-21 02:24:00,83.1,73.2,29.69,ESE,112,4.9,4.9,72,0.00,,---,0.00,VWS V13.01,2013-08-21 06:24:00,
2013-08-21 02:33:00,83.1,73.6,29.69,East,90,1.8,1.8,73,0.00,,---,0.00,VWS V13.01,2013-08-21 06:33:00,
2013-08-21 02:43:00,83.1,73.6,29.68,East,90,1.6,2.5,73,0.00,,---,0.00,VWS V13.01,2013-08-21 06:43:00,
2013-08-21 02:54:00,82.9,73.4,29.68,ENE,68,0.9,1.6,73,0.00,,---,0.00,VWS V13.01,2013-08-21 06:54:00,
2013-08-21 03:03:00,82.9,73.4,29.68,East,90,0.0,0.0,73,0.00,,---,0.00,VWS V13.01,2013-08-21 07:03:00,
2013-08-21 03:09:00,82.9,73.8,29.68,NE,45,0.0,2.9,74,0.00,,---,0.00,VWS V13.01,2013-08-21 07:09:00,
2013-08-21 03:19:00,82.8,73.6,29.67,NE,45,1.6,6.7,74,0.00,,---,0.00,VWS V13.01,2013-08-21 07:19:00,
2013-08-21 03:24:00,82.8,73.6,29.68,NE,45,1.6,1.6,74,0.00,,---,0.00,VWS V13.01,2013-08-21 07:24:00,
2013-08-21 03:34:00,82.9,74.2,29.67,NE,45,0.0,5.4,75,0.00,,---,0.00,VWS V13.01,2013-08-21 07:34:00,
2013-08-21 03:39:00,82.9,74.2,29.67,ENE,68,0.0,0.0,75,0.00,,---,0.00,VWS V13.01,2013-08-21 07:39:00,
2013-08-21 03:49:00,83.1,74.0,29.66,East,90,1.3,1.3,74,0.00,,---,0.00,VWS V13.01,2013-08-21 07:49:00,
2013-08-21 03:58:00,83.1,73.6,29.66,NE,45,5.6,5.6,73,0.00,,---,0.00,VWS V13.01,2013-08-21 07:58:00,
2013-08-21 04:03:00,83.1,74.0,29.67,East,90,0.0,5.6,74,0.00,,---,0.00,VWS V13.01,2013-08-21 08:03:00,
2013-08-21 04:14:00,83.1,74.0,29.66,NE,45,0.0,6.5,74,0.00,,---,0.00,VWS V13.01,2013-08-21 08:14:00,
2013-08-21 04:19:00,83.1,74.0,29.66,ESE,112,4.0,6.9,74,0.00,,---,0.00,VWS V13.01,2013-08-21 08:19:00,
2013-08-21 04:28:00,83.3,74.2,29.65,East,90,0.0,0.0,74,0.00,,---,0.00,VWS V13.01,2013-08-21 08:28:00,
2013-08-21 04:38:00,83.3,73.8,29.65,East,90,2.0,2.7,73,0.00,,---,0.00,VWS V13.01,2013-08-21 08:38:00,
2013-08-21 04:44:00,83.3,73.8,29.66,East,90,5.1,5.1,73,0.00,,---,0.00,VWS V13.01,2013-08-21 08:44:00,
2013-08-21 04:49:00,83.3,73.3,29.66,ESE,112,0.0,5.1,72,0.00,,---,0.00,VWS V13.01,2013-08-21 08:49:00,
2013-08-21 04:58:00,83.3,73.8,29.66,SE,135,6.9,6.9,73,0.00,,---,0.00,VWS V13.01,2013-08-21 08:58:00,
2013-08-21 05:03:00,83.5,73.9,29.66,East,90,1.1,7.6,73,0.00,,---,0.00,VWS V13.01,2013-08-21 09:03:00,
2013-08-21 05:09:00,83.3,73.8,29.67,East,90,4.3,4.3,73,0.00,,---,0.00,VWS V13.01,2013-08-21 09:09:00,
2013-08-21 05:18:00,83.5,73.9,29.66,NE,45,0.7,4.3,73,0.00,,---,0.00,VWS V13.01,2013-08-21 09:18:00,
2013-08-21 05:23:00,83.3,73.8,29.67,ENE,68,2.2,2.2,73,0.00,,---,0.00,VWS V13.01,2013-08-21 09:23:00,
2013-08-21 05:29:00,83.5,73.9,29.67,NE,45,0.0,7.4,73,0.00,,---,0.00,VWS V13.01,2013-08-21 09:29:00,
2013-08-21 05:39:00,83.5,73.9,29.68,ESE,112,8.1,8.1,73,0.00,,---,0.00,VWS V13.01,2013-08-21 09:39:00,
2013-08-21 05:49:00,83.5,73.5,29.67,East,90,4.5,4.5,72,0.00,,---,0.00,VWS V13.01,2013-08-21 09:49:00,
2013-08-21 05:59:00,83.5,73.5,29.68,NE,45,3.1,4.5,72,0.00,,---,0.00,VWS V13.01,2013-08-21 09:59:00,
2013-08-21 06:08:00,83.5,73.5,29.68,East,90,6.0,6.0,72,0.00,,---,0.00,VWS V13.01,2013-08-21 10:08:00,
2013-08-21 06:13:00,83.5,73.5,29.68,ENE,68,3.1,6.0,72,0.00,,---,0.00,VWS V13.01,2013-08-21 10:13:00,
2013-08-21 06:19:00,83.5,73.9,29.68,ESE,112,6.9,6.9,73,0.00,,---,0.00,VWS V13.01,2013-08-21 10:19:00,
2013-08-21 06:29:00,83.1,74.0,29.68,East,90,0.4,5.4,74,0.00,,---,0.00,VWS V13.01,2013-08-21 10:29:00,
2013-08-21 06:39:00,82.9,73.8,29.68,East,90,3.4,3.4,74,0.00,,---,0.00,VWS V13.01,2013-08-21 10:39:00,
2013-08-21 06:44:00,82.8,74.0,29.68,ESE,112,6.5,6.5,75,0.00,,---,0.00,VWS V13.01,2013-08-21 10:44:00,
2013-08-21 06:49:00,82.8,73.6,29.68,East,90,5.8,8.1,74,0.00,,---,0.00,VWS V13.01,2013-08-21 10:49:00,
2013-08-21 06:59:00,82.8,73.6,29.68,NE,45,0.0,10.7,74,0.00,,---,0.00,VWS V13.01,2013-08-21 10:59:00,
2013-08-21 07:09:00,82.9,73.4,29.68,ENE,68,0.7,4.5,73,0.00,,---,0.00,VWS V13.01,2013-08-21 11:09:00,
2013-08-21 07:19:00,83.1,73.6,29.68,East,90,1.8,2.7,73,0.00,,---,0.00,VWS V13.01,2013-08-21 11:19:00,
2013-08-21 07:28:00,83.3,73.8,29.69,ENE,68,0.0,4.0,73,0.00,,---,0.00,VWS V13.01,2013-08-21 11:28:00,
2013-08-21 07:33:00,84.0,74.4,29.69,ESE,112,6.7,6.7,73,0.00,,---,0.00,VWS V13.01,2013-08-21 11:33:00,
2013-08-21 07:38:00,84.0,74.0,29.69,ESE,112,3.4,6.7,72,0.00,,---,0.00,VWS V13.01,2013-08-21 11:38:00,
2013-08-21 07:49:00,84.7,74.7,29.68,NNE,22,0.4,8.7,72,0.00,,---,0.00,VWS V13.01,2013-08-21 11:49:00,
2013-08-21 07:58:00,84.9,74.5,29.68,East,90,3.4,7.2,71,0.00,,---,0.00,VWS V13.01,2013-08-21 11:58:00,
2013-08-21 08:04:00,84.9,74.5,29.69,East,90,9.4,9.4,71,0.00,,---,0.00,VWS V13.01,2013-08-21 12:04:00,
2013-08-21 08:09:00,85.3,74.4,29.68,ESE,112,0.7,9.4,70,0.00,,---,0.00,VWS V13.01,2013-08-21 12:09:00,
2013-08-21 08:18:00,85.1,74.6,29.69,NE,45,4.3,4.7,71,0.00,,---,0.00,VWS V13.01,2013-08-21 12:18:00,
2013-08-21 08:23:00,84.9,74.5,29.70,ENE,68,9.6,9.6,71,0.00,,---,0.00,VWS V13.01,2013-08-21 12:23:00,
2013-08-21 08:28:00,84.9,74.5,29.70,ESE,112,4.5,9.6,71,0.00,,---,0.00,VWS V13.01,2013-08-21 12:28:00,
2013-08-21 08:39:00,84.7,74.7,29.70,ESE,112,8.3,8.3,72,0.00,,---,0.00,VWS V13.01,2013-08-21 12:39:00,
2013-08-21 08:48:00,84.4,73.9,29.71,East,90,4.0,18.8,71,0.00,,---,0.00,VWS V13.01,2013-08-21 12:48:00,
2013-08-21 08:53:00,81.7,71.4,29.71,East,90,4.0,4.0,71,0.00,,---,0.00,VWS V13.01,2013-08-21 12:53:00,
2013-08-21 08:59:00,80.6,72.7,29.71,East,90,6.0,6.0,77,0.08,,---,0.08,VWS V13.01,2013-08-21 12:59:00,
2013-08-21 09:09:00,80.4,72.9,29.71,ESE,112,0.0,2.7,78,0.08,,---,0.08,VWS V13.01,2013-08-21 13:09:00,
2013-08-21 09:18:00,81.1,73.6,29.71,East,90,0.0,2.0,78,0.12,,---,0.12,VWS V13.01,2013-08-21 13:18:00,
2013-08-21 09:24:00,81.1,73.6,29.71,East,90,0.0,0.0,78,0.12,,---,0.12,VWS V13.01,2013-08-21 13:24:00,
2013-08-21 09:29:00,81.7,74.5,29.71,ESE,112,3.4,3.4,79,0.12,,---,0.12,VWS V13.01,2013-08-21 13:29:00,
2013-08-21 09:34:00,81.7,74.5,29.71,ENE,68,0.4,3.4,79,0.12,,---,0.12,VWS V13.01,2013-08-21 13:34:00,
2013-08-21 09:43:00,82.0,74.9,29.72,East,90,9.4,9.6,79,0.12,,---,0.12,VWS V13.01,2013-08-21 13:43:00,
2013-08-21 09:49:00,81.7,74.5,29.72,East,90,9.4,9.4,79,0.12,,---,0.12,VWS V13.01,2013-08-21 13:49:00,
2013-08-21 09:59:00,81.5,74.0,29.71,ESE,112,7.4,9.4,78,0.04,,---,0.12,VWS V13.01,2013-08-21 13:59:00,
2013-08-21 10:04:00,81.7,74.2,29.71,ESE,112,7.4,7.4,78,0.06,,---,0.14,VWS V13.01,2013-08-21 14:04:00,
2013-08-21 10:13:00,82.2,74.7,29.72,ENE,68,2.2,5.8,78,0.02,,---,0.14,VWS V13.01,2013-08-21 14:13:00,
2013-08-21 10:19:00,82.8,75.2,29.72,East,90,1.3,2.2,78,0.02,,---,0.14,VWS V13.01,2013-08-21 14:19:00,
2013-08-21 10:28:00,82.9,74.6,29.72,ESE,112,3.4,3.4,76,0.02,,---,0.14,VWS V13.01,2013-08-21 14:28:00,
2013-08-21 10:38:00,83.1,74.4,29.72,ESE,112,1.3,3.8,75,0.02,,---,0.14,VWS V13.01,2013-08-21 14:38:00,
2013-08-21 10:48:00,83.1,74.8,29.73,East,90,8.7,8.7,76,0.02,,---,0.14,VWS V13.01,2013-08-21 14:48:00,
2013-08-21 10:59:00,83.5,75.1,29.73,ENE,68,4.7,5.4,76,0.02,,---,0.14,VWS V13.01,2013-08-21 14:59:00,
2013-08-21 11:09:00,83.8,75.5,29.72,NE,45,0.0,8.5,76,0.00,,---,0.14,VWS V13.01,2013-08-21 15:09:00,
2013-08-21 11:19:00,84.0,75.2,29.72,NE,45,9.8,9.8,75,0.00,,---,0.14,VWS V13.01,2013-08-21 15:19:00,
2013-08-21 11:29:00,84.4,75.2,29.72,ENE,68,2.7,5.1,74,0.00,,---,0.14,VWS V13.01,2013-08-21 15:29:00,
2013-08-21 11:34:00,84.4,75.6,29.72,East,90,6.5,6.9,75,0.00,,---,0.14,VWS V13.01,2013-08-21 15:34:00,
2013-08-21 11:43:00,84.7,75.5,29.72,NE,45,1.8,9.0,74,0.00,,---,0.14,VWS V13.01,2013-08-21 15:43:00,
2013-08-21 11:49:00,84.9,75.3,29.72,ENE,68,9.4,9.4,73,0.00,,---,0.14,VWS V13.01,2013-08-21 15:49:00,
2013-08-21 11:59:00,85.8,75.8,29.72,East,90,3.4,6.0,72,0.00,,---,0.14,VWS V13.01,2013-08-21 15:59:00,
2013-08-21 12:08:00,86.4,76.3,29.72,ESE,112,12.5,12.5,72,0.00,,---,0.14,VWS V13.01,2013-08-21 16:08:00,
2013-08-21 12:14:00,86.5,76.4,29.73,NE,45,3.8,12.5,72,0.00,,---,0.14,VWS V13.01,2013-08-21 16:14:00,
2013-08-21 12:19:00,86.5,76.9,29.73,NE,45,7.2,7.2,73,0.00,,---,0.14,VWS V13.01,2013-08-21 16:19:00,
2013-08-21 12:24:00,86.7,76.6,29.73,East,90,6.7,7.2,72,0.00,,---,0.14,VWS V13.01,2013-08-21 16:24:00,
2013-08-21 12:33:00,86.5,76.4,29.72,ENE,68,6.3,6.5,72,0.00,,---,0.14,VWS V13.01,2013-08-21 16:33:00,
2013-08-21 12:38:00,86.9,76.8,29.72,ENE,68,7.2,7.2,72,0.00,,---,0.14,VWS V13.01,2013-08-21 16:38:00,
2013-08-21 12:44:00,87.3,77.1,29.73,ESE,112,3.4,7.2,72,0.00,,---,0.14,VWS V13.01,2013-08-21 16:44:00,
2013-08-21 12:54:00,88.0,77.0,29.72,ENE,68,0.4,3.4,70,0.00,,---,0.14,VWS V13.01,2013-08-21 16:54:00,
2013-08-21 13:04:00,87.1,77.0,29.72,NE,45,6.5,6.5,72,0.00,,---,0.14,VWS V13.01,2013-08-21 17:04:00,
2013-08-21 13:13:00,85.8,76.6,29.72,ENE,68,0.7,4.7,74,0.00,,---,0.14,VWS V13.01,2013-08-21 17:13:00,
2013-08-21 13:18:00,85.8,76.2,29.72,SE,135,0.0,9.4,73,0.00,,---,0.14,VWS V13.01,2013-08-21 17:18:00,
2013-08-21 13:23:00,85.6,76.0,29.72,East,90,4.9,4.9,73,0.00,,---,0.14,VWS V13.01,2013-08-21 17:23:00,
2013-08-21 13:29:00,85.3,75.7,29.72,NE,45,3.4,9.2,73,0.00,,---,0.14,VWS V13.01,2013-08-21 17:29:00,
2013-08-21 13:34:00,84.9,75.3,29.71,ENE,68,3.1,3.4,73,0.00,,---,0.14,VWS V13.01,2013-08-21 17:34:00,
2013-08-21 13:44:00,85.8,76.2,29.71,SE,135,3.8,6.9,73,0.00,,---,0.14,VWS V13.01,2013-08-21 17:44:00,
2013-08-21 13:54:00,88.2,75.8,29.71,East,90,8.1,10.5,67,0.00,,---,0.14,VWS V13.01,2013-08-21 17:54:00,
2013-08-21 14:04:00,89.2,76.4,29.70,ENE,68,0.0,1.6,66,0.00,,---,0.14,VWS V13.01,2013-08-21 18:04:00,
2013-08-21 14:14:00,89.4,76.6,29.70,ENE,68,0.0,9.0,66,0.00,,---,0.14,VWS V13.01,2013-08-21 18:14:00,
2013-08-21 14:24:00,89.6,77.2,29.70,WSW,248,1.3,3.1,67,0.00,,---,0.14,VWS V13.01,2013-08-21 18:24:00,
2013-08-21 14:33:00,90.0,77.5,29.69,ESE,112,13.4,13.4,67,0.00,,---,0.14,VWS V13.01,2013-08-21 18:33:00,
2013-08-21 14:38:00,90.0,77.5,29.69,ESE,112,13.4,13.4,67,0.00,,---,0.14,VWS V13.01,2013-08-21 18:38:00,
2013-08-21 14:43:00,89.8,76.4,29.69,East,90,6.3,13.4,65,0.00,,---,0.14,VWS V13.01,2013-08-21 18:43:00,
2013-08-21 14:53:00,90.1,76.3,29.69,WSW,248,2.0,2.7,64,0.00,,---,0.14,VWS V13.01,2013-08-21 18:53:00,
2013-08-21 14:59:00,89.8,76.0,29.69,WSW,248,7.4,10.1,64,0.00,,---,0.14,VWS V13.01,2013-08-21 18:59:00,
2013-08-21 15:04:00,89.6,76.3,29.68,WSW,248,7.8,9.6,65,0.00,,---,0.14,VWS V13.01,2013-08-21 19:04:00,
2013-08-21 15:14:00,89.6,75.3,29.68,East,90,8.1,9.6,63,0.00,,---,0.14,VWS V13.01,2013-08-21 19:14:00,
2013-08-21 15:19:00,89.6,75.8,29.68,WNW,292,6.7,8.1,64,0.00,,---,0.14,VWS V13.01,2013-08-21 19:19:00,
2013-08-21 15:28:00,90.1,77.2,29.68,WSW,248,5.1,10.3,66,0.00,,---,0.14,VWS V13.01,2013-08-21 19:28:00,
2013-08-21 15:34:00,90.3,77.4,29.68,WSW,248,5.1,5.1,66,0.00,,---,0.14,VWS V13.01,2013-08-21 19:34:00,
2013-08-21 15:44:00,89.6,76.7,29.68,WSW,248,12.1,12.1,66,0.00,,---,0.14,VWS V13.01,2013-08-21 19:44:00,
2013-08-21 15:54:00,89.8,77.4,29.67,East,90,4.5,4.5,67,0.00,,---,0.14,VWS V13.01,2013-08-21 19:54:00,
2013-08-21 16:03:00,89.8,76.9,29.66,WSW,248,12.5,12.5,66,0.00,,---,0.14,VWS V13.01,2013-08-21 20:03:00,
2013-08-21 16:09:00,89.8,76.9,29.66,WSW,248,10.5,12.5,66,0.00,,---,0.14,VWS V13.01,2013-08-21 20:09:00,
2013-08-21 16:14:00,90.1,77.2,29.66,WSW,248,10.5,10.5,66,0.00,,---,0.14,VWS V13.01,2013-08-21 20:14:00,
2013-08-21 16:19:00,89.8,76.9,29.66,WSW,248,4.5,10.5,66,0.00,,---,0.14,VWS V13.01,2013-08-21 20:19:00,
2013-08-21 16:28:00,90.1,77.7,29.66,NW,315,9.6,9.6,67,0.00,,---,0.14,VWS V13.01,2013-08-21 20:28:00,
2013-08-21 16:33:00,90.1,77.2,29.66,East,90,6.9,9.6,66,0.00,,---,0.14,VWS V13.01,2013-08-21 20:33:00,
2013-08-21 16:39:00,89.8,76.9,29.65,WSW,248,2.5,6.9,66,0.00,,---,0.14,VWS V13.01,2013-08-21 20:39:00,
2013-08-21 16:49:00,90.1,77.2,29.66,WSW,248,5.1,5.1,66,0.00,,---,0.14,VWS V13.01,2013-08-21 20:49:00,
2013-08-21 16:58:00,89.2,76.4,29.65,ENE,68,3.8,10.7,66,0.00,,---,0.14,VWS V13.01,2013-08-21 20:58:00,
2013-08-21 17:04:00,88.5,76.2,29.65,NE,45,1.1,3.8,67,0.00,,---,0.14,VWS V13.01,2013-08-21 21:04:00,
2013-08-21 17:09:00,88.0,76.1,29.66,ENE,68,3.8,9.4,68,0.00,,---,0.14,VWS V13.01,2013-08-21 21:09:00,
2013-08-21 17:18:00,87.1,75.2,29.66,East,90,5.4,7.4,68,0.00,,---,0.14,VWS V13.01,2013-08-21 21:18:00,
2013-08-21 17:23:00,86.7,75.3,29.65,ENE,68,9.2,9.2,69,0.00,,---,0.14,VWS V13.01,2013-08-21 21:23:00,
2013-08-21 17:28:00,86.5,75.6,29.65,ENE,68,12.1,12.1,70,0.00,,---,0.14,VWS V13.01,2013-08-21 21:28:00,
2013-08-21 17:33:00,86.4,75.4,29.65,ENE,68,12.1,12.1,70,0.00,,---,0.14,VWS V13.01,2013-08-21 21:33:00,
2013-08-21 17:39:00,86.4,75.4,29.65,ENE,68,0.4,12.1,70,0.00,,---,0.14,VWS V13.01,2013-08-21 21:39:00,
2013-08-21 17:49:00,87.4,76.0,29.66,ESE,112,0.0,6.3,69,0.00,,---,0.14,VWS V13.01,2013-08-21 21:49:00,
2013-08-21 17:54:00,87.6,76.2,29.65,WSW,248,10.5,10.5,69,0.00,,---,0.14,VWS V13.01,2013-08-21 21:54:00,
2013-08-21 18:04:00,87.4,75.6,29.66,SE,135,11.2,11.2,68,0.00,,---,0.14,VWS V13.01,2013-08-21 22:04:00,
2013-08-21 18:09:00,86.9,75.5,29.66,ESE,112,7.6,11.2,69,0.00,,---,0.14,VWS V13.01,2013-08-21 22:09:00,
2013-08-21 18:19:00,86.2,75.2,29.66,East,90,6.3,9.8,70,0.00,,---,0.14,VWS V13.01,2013-08-21 22:19:00,
2013-08-21 18:28:00,85.8,75.3,29.65,East,90,8.1,8.1,71,0.00,,---,0.14,VWS V13.01,2013-08-21 22:28:00,
2013-08-21 18:34:00,85.6,75.2,29.65,ESE,112,7.2,8.3,71,0.00,,---,0.14,VWS V13.01,2013-08-21 22:34:00,
2013-08-21 18:39:00,85.5,75.4,29.65,East,90,7.4,7.4,72,0.00,,---,0.14,VWS V13.01,2013-08-21 22:39:00,
2013-08-21 18:49:00,84.9,73.2,29.65,ESE,112,13.0,13.0,68,0.00,,---,0.14,VWS V13.01,2013-08-21 22:49:00,
2013-08-21 18:59:00,84.7,74.3,29.65,SE,135,10.1,10.3,71,0.00,,---,0.14,VWS V13.01,2013-08-21 22:59:00,
2013-08-21 19:08:00,84.7,75.1,29.65,East,90,2.9,4.3,73,0.00,,---,0.14,VWS V13.01,2013-08-21 23:08:00,
2013-08-21 19:14:00,84.7,75.1,29.65,ESE,112,2.9,6.7,73,0.00,,---,0.14,VWS V13.01,2013-08-21 23:14:00,
2013-08-21 19:23:00,84.7,75.1,29.65,ESE,112,6.9,7.2,73,0.00,,---,0.14,VWS V13.01,2013-08-21 23:23:00,
2013-08-21 19:29:00,84.7,75.1,29.65,ESE,112,6.7,7.6,73,0.00,,---,0.14,VWS V13.01,2013-08-21 23:29:00,
2013-08-21 19:39:00,84.7,75.1,29.65,ESE,112,1.3,10.5,73,0.00,,---,0.14,VWS V13.01,2013-08-21 23:39:00,
2013-08-21 19:49:00,84.7,75.1,29.65,ESE,112,2.2,2.2,73,0.00,,---,0.14,VWS V13.01,2013-08-21 23:49:00,
2013-08-21 19:59:00,84.7,75.1,29.66,ESE,112,7.6,7.6,73,0.00,,---,0.14,VWS V13.01,2013-08-21 23:59:00,
2013-08-21 20:04:00,84.6,75.0,29.67,SE,135,2.7,7.6,73,0.00,,---,0.14,VWS V13.01,2013-08-22 00:04:00,
2013-08-21 20:14:00,84.6,74.5,29.68,East,90,0.0,1.1,72,0.00,,---,0.14,VWS V13.01,2013-08-22 00:14:00,
2013-08-21 20:24:00,84.6,75.0,29.68,East,90,8.7,8.7,73,0.00,,---,0.14,VWS V13.01,2013-08-22 00:24:00,
2013-08-21 20:33:00,84.4,74.8,29.68,ENE,68,0.0,9.8,73,0.00,,---,0.14,VWS V13.01,2013-08-22 00:33:00,
2013-08-21 20:43:00,84.6,75.0,29.68,ESE,112,1.6,4.9,73,0.00,,---,0.14,VWS V13.01,2013-08-22 00:43:00,
2013-08-21 20:48:00,84.4,74.8,29.68,ESE,112,0.0,1.6,73,0.00,,---,0.14,VWS V13.01,2013-08-22 00:48:00,
2013-08-21 20:54:00,84.4,74.8,29.68,NNE,22,2.0,6.0,73,0.00,,---,0.14,VWS V13.01,2013-08-22 00:54:00,
2013-08-21 21:04:00,84.4,74.8,29.69,ESE,112,1.3,1.3,73,0.00,,---,0.14,VWS V13.01,2013-08-22 01:04:00,
2013-08-21 21:13:00,84.4,74.8,29.69,East,90,12.8,12.8,73,0.00,,---,0.14,VWS V13.01,2013-08-22 01:13:00,
2013-08-21 21:18:00,84.4,74.8,29.69,ESE,112,6.0,12.8,73,0.00,,---,0.14,VWS V13.01,2013-08-22 01:18:00,
2013-08-21 21:24:00,84.4,75.2,29.69,East,90,3.4,6.9,74,0.00,,---,0.14,VWS V13.01,2013-08-22 01:24:00,
2013-08-21 21:33:00,84.4,74.4,29.70,SSE,158,10.5,10.5,72,0.00,,---,0.14,VWS V13.01,2013-08-22 01:33:00,
2013-08-21 21:39:00,84.4,74.4,29.70,ESE,112,7.8,10.5,72,0.00,,---,0.14,VWS V13.01,2013-08-22 01:39:00,
2013-08-21 21:44:00,84.4,74.4,29.70,East,90,4.5,8.5,72,0.00,,---,0.14,VWS V13.01,2013-08-22 01:44:00,
2013-08-21 21:53:00,84.4,74.4,29.69,ESE,112,1.8,6.5,72,0.00,,---,0.14,VWS V13.01,2013-08-22 01:53:00,
2013-08-21 21:58:00,84.4,74.4,29.70,NNE,22,0.7,8.7,72,0.00,,---,0.14,VWS V13.01,2013-08-22 01:58:00,
2013-08-21 22:09:00,84.4,74.4,29.69,East,90,2.9,4.7,72,0.00,,---,0.14,VWS V13.01,2013-08-22 02:09:00,
2013-08-21 22:14:00,84.4,74.4,29.69,ESE,112,6.3,14.8,72,0.00,,---,0.14,VWS V13.01,2013-08-22 02:14:00,
2013-08-21 22:24:00,84.2,74.2,29.70,SE,135,6.0,6.0,72,0.00,,---,0.14,VWS V13.01,2013-08-22 02:24:00,
2013-08-21 22:33:00,84.2,74.2,29.70,ESE,112,0.0,0.0,72,0.00,,---,0.14,VWS V13.01,2013-08-22 02:33:00,
2013-08-21 22:39:00,84.2,74.2,29.70,ESE,112,6.5,6.9,72,0.00,,---,0.14,VWS V13.01,2013-08-22 02:39:00,
2013-08-21 22:49:00,84.2,74.6,29.70,East,90,2.9,2.9,73,0.00,,---,0.14,VWS V13.01,2013-08-22 02:49:00,
2013-08-21 22:54:00,84.2,74.6,29.70,East,90,13.2,13.2,73,0.00,,---,0.14,VWS V13.01,2013-08-22 02:54:00,
2013-08-21 22:59:00,84.0,74.4,29.70,East,90,5.6,13.2,73,0.00,,---,0.14,VWS V13.01,2013-08-22 02:59:00,
2013-08-21 23:08:00,84.0,74.4,29.71,SE,135,5.4,5.6,73,0.00,,---,0.14,VWS V13.01,2013-08-22 03:08:00,
2013-08-21 23:14:00,84.0,74.8,29.71,SE,135,3.1,5.4,74,0.00,,---,0.14,VWS V13.01,2013-08-22 03:14:00,
2013-08-21 23:23:00,84.0,74.8,29.71,SE,135,6.7,6.7,74,0.00,,---,0.14,VWS V13.01,2013-08-22 03:23:00,
2013-08-21 23:29:00,84.0,74.8,29.70,ESE,112,4.3,6.7,74,0.00,,---,0.14,VWS V13.01,2013-08-22 03:29:00,
2013-08-21 23:38:00,84.0,74.8,29.71,East,90,0.0,4.3,74,0.00,,---,0.14,VWS V13.01,2013-08-22 03:38:00,
2013-08-21 23:44:00,84.0,74.8,29.71,East,90,6.9,6.9,74,0.00,,---,0.14,VWS V13.01,2013-08-22 03:44:00,
2013-08-21 23:54:00,84.0,74.8,29.71,ESE,112,1.6,1.6,74,0.00,,---,0.14,VWS V13.01,2013-08-22 03:54:00,
2013-08-21 23:59:00,84.0,74.8,29.71,ENE,68,1.3,1.6,74,0.00,,---,0.14,VWS V13.01,2013-08-22 03:59:00,